createdAt,value
2019-05-12T00:01:59.579Z,20.80
2019-05-12T00:04:31.559Z,20.57
2019-05-12T00:07:04.745Z,21.60
2019-05-12T00:09:38.761Z,20.87
2019-05-12T00:12:10.359Z,19.87
2019-05-12T00:14:42.391Z,20.00
2019-05-12T00:17:14.339Z,18.07
2019-05-12T00:19:47.949Z,19.77
2019-05-12T00:22:22.579Z,21.17
2019-05-12T00:24:54.621Z,22.00
2019-05-12T00:27:28.463Z,23.47
2019-05-12T00:30:00.861Z,18.63
2019-05-12T00:32:32.910Z,20.47
2019-05-12T00:35:07.657Z,19.97
2019-05-12T00:37:38.801Z,18.63
2019-05-12T00:40:11.144Z,18.37
2019-05-12T00:42:43.101Z,20.73
2019-05-12T00:45:15.123Z,20.77
2019-05-12T00:47:48.064Z,21.10
2019-05-12T00:50:20.173Z,21.63
2019-05-12T00:52:52.187Z,20.47
2019-05-12T00:55:24.157Z,19.63
2019-05-12T00:57:58.203Z,20.77
2019-05-12T01:00:30.305Z,19.97
2019-05-12T01:03:02.291Z,23.23
2019-05-12T01:05:38.013Z,22.33
2019-05-12T01:08:09.713Z,21.93
2019-05-12T01:10:41.891Z,21.07
2019-05-12T01:13:13.973Z,23.60
2019-05-12T01:15:48.025Z,23.43
2019-05-12T01:18:19.764Z,24.77
2019-05-12T01:20:51.706Z,26.60
2019-05-12T01:23:23.756Z,24.33
2019-05-12T01:25:58.298Z,21.60
2019-05-12T01:28:30.099Z,22.63
2019-05-12T01:31:03.737Z,21.23
2019-05-12T01:33:37.963Z,26.30
2019-05-12T01:36:09.409Z,18.37
2019-05-12T01:38:41.473Z,16.30
2019-05-12T01:41:13.521Z,16.20
2019-05-12T01:43:45.487Z,15.60
2019-05-12T01:46:18.117Z,19.37
2019-05-12T01:48:50.646Z,26.90
2019-05-12T01:51:22.821Z,27.70
2019-05-12T01:54:08.549Z,23.67
2019-05-12T01:56:28.911Z,23.63
2019-05-12T01:59:00.967Z,28.17
2019-05-12T02:01:33.684Z,21.13
2019-05-12T02:04:07.789Z,17.27
2019-05-12T02:06:39.965Z,15.97
2019-05-12T02:09:14.575Z,15.60
2019-05-12T02:11:48.348Z,18.47
2019-05-12T02:14:20.485Z,16.20
2019-05-12T02:16:52.433Z,13.60
2019-05-12T02:19:24.423Z,23.80
2019-05-12T02:21:57.942Z,33.30
2019-05-12T02:24:30.640Z,33.20
2019-05-12T02:27:02.847Z,32.43
2019-05-12T02:29:34.917Z,33.13
2019-05-12T02:32:06.898Z,33.83
2019-05-12T02:34:38.889Z,37.33
2019-05-12T02:37:11.133Z,35.50
2019-05-12T02:39:44.877Z,36.10
2019-05-12T02:42:16.961Z,32.50
2019-05-12T02:44:48.954Z,33.80
2019-05-12T02:47:23.847Z,31.87
2019-05-12T02:49:55.028Z,36.43
2019-05-12T02:52:27.168Z,30.57
2019-05-12T02:55:00.863Z,32.77
2019-05-12T02:57:34.936Z,31.07
2019-05-12T03:00:09.973Z,34.20
2019-05-12T03:02:44.934Z,31.63
2019-05-12T03:05:16.909Z,30.83
2019-05-12T03:07:50.999Z,32.50
2019-05-12T03:10:25.257Z,33.00
2019-05-12T03:12:56.704Z,33.03
2019-05-12T03:15:28.698Z,37.20
2019-05-12T03:18:01.067Z,31.63
2019-05-12T03:20:35.040Z,27.93
2019-05-12T03:23:07.110Z,23.83
2019-05-12T03:25:39.294Z,26.20
2019-05-12T03:28:11.245Z,25.20
2019-05-12T03:30:48.383Z,28.60
2019-05-12T03:33:19.525Z,27.00
2019-05-12T03:35:54.985Z,25.20
2019-05-12T03:38:27.815Z,24.87
2019-05-12T03:40:58.383Z,27.87
2019-05-12T03:43:30.635Z,41.80
2019-05-12T03:46:05.268Z,44.20
2019-05-12T03:48:36.343Z,49.33
2019-05-12T03:51:08.286Z,47.70
2019-05-12T03:53:40.269Z,54.43
2019-05-12T03:56:15.052Z,51.63
2019-05-12T03:58:45.954Z,51.10
2019-05-12T04:01:17.890Z,54.50
2019-05-12T04:03:50.004Z,55.77
2019-05-12T04:06:24.542Z,56.67
2019-05-12T04:08:59.923Z,53.43
2019-05-12T04:11:30.761Z,52.73
2019-05-12T04:14:05.474Z,48.97
2019-05-12T04:16:36.847Z,50.10
2019-05-12T04:19:09.122Z,49.67
2019-05-12T04:21:44.364Z,46.73
2019-05-12T04:24:15.087Z,39.97
2019-05-12T04:26:47.249Z,38.07
2019-05-12T04:29:19.224Z,39.33
2019-05-12T04:31:51.169Z,63.07
2019-05-12T04:34:25.085Z,61.83
2019-05-12T04:36:57.035Z,53.17
2019-05-12T04:39:29.017Z,47.23
2019-05-12T04:42:01.253Z,44.87
2019-05-12T04:44:34.681Z,58.23
2019-05-12T04:47:07.067Z,60.13
2019-05-12T04:49:39.028Z,62.43
2019-05-12T04:52:11.168Z,56.07
2019-05-12T04:54:44.487Z,56.30
2019-05-12T04:57:20.841Z,55.63
2019-05-12T04:59:54.093Z,57.83
2019-05-12T05:02:25.240Z,52.03
2019-05-12T05:04:57.370Z,52.10
2019-05-12T05:07:29.315Z,49.77
2019-05-12T05:10:04.460Z,50.47
2019-05-12T05:12:35.114Z,44.80
2019-05-12T05:15:08.887Z,41.67
2019-05-12T05:17:43.978Z,44.70
2019-05-12T05:20:15.109Z,37.73
2019-05-12T05:22:47.106Z,38.60
2019-05-12T05:25:19.041Z,38.02
2019-05-12T05:27:53.249Z,34.97
2019-05-12T05:30:27.168Z,35.63
2019-05-12T05:32:59.216Z,36.40
2019-05-12T05:35:37.177Z,34.37
2019-05-12T05:38:04.951Z,37.80
2019-05-12T05:40:36.908Z,34.13
2019-05-12T05:43:13.888Z,37.33
2019-05-12T05:45:43.823Z,36.50
2019-05-12T05:48:15.929Z,36.70
2019-05-12T05:50:47.897Z,41.73
2019-05-12T05:53:20.313Z,38.93
2019-05-12T05:55:56.316Z,39.90
2019-05-12T05:58:26.331Z,39.10
2019-05-12T06:01:03.872Z,40.77
2019-05-12T06:03:33.861Z,41.47
2019-05-12T06:06:10.722Z,39.60
2019-05-12T06:08:39.921Z,40.70
2019-05-12T06:11:16.895Z,45.40
2019-05-12T06:13:46.667Z,43.90
2019-05-12T06:16:20.771Z,41.33
2019-05-12T06:18:54.403Z,44.17
2019-05-12T06:21:29.105Z,48.23
2019-05-12T06:23:59.886Z,49.90
2019-05-12T06:26:35.307Z,42.77
2019-05-12T06:29:05.622Z,42.37
2019-05-12T06:31:40.280Z,42.80
2019-05-12T06:34:15.165Z,41.90
2019-05-12T06:36:46.104Z,50.63
2019-05-12T06:39:20.589Z,46.33
2019-05-12T06:41:55.187Z,46.70
2019-05-12T06:44:25.788Z,47.10
2019-05-12T06:47:03.301Z,50.63
2019-05-12T06:49:33.741Z,46.60
2019-05-12T06:52:07.185Z,53.83
2019-05-12T06:54:44.521Z,51.57
2019-05-12T06:57:24.195Z,52.20
2019-05-12T06:59:50.988Z,47.37
2019-05-12T07:02:20.214Z,42.43
2019-05-12T07:04:57.276Z,55.33
2019-05-12T07:07:27.725Z,48.70
2019-05-12T07:10:10.450Z,53.77
2019-05-12T07:12:43.487Z,51.47
2019-05-12T07:15:11.124Z,51.47
2019-05-12T07:17:57.111Z,46.33
2019-05-12T07:20:34.160Z,48.53
2019-05-12T07:23:03.967Z,53.40
2019-05-12T07:25:36.776Z,56.37
2019-05-12T07:28:09.145Z,56.40
2019-05-12T07:30:43.905Z,59.77
2019-05-12T07:33:15.637Z,59.93
2019-05-12T07:35:53.370Z,70.43
2019-05-12T07:38:26.031Z,68.90
2019-05-12T07:41:00.711Z,76.97
2019-05-12T07:43:34.157Z,73.30
2019-05-12T07:46:07.248Z,78.90
2019-05-12T07:48:40.255Z,72.70
2019-05-12T07:51:13.875Z,62.87
2019-05-12T07:53:54.249Z,64.97
2019-05-12T07:56:27.625Z,68.40
2019-05-12T07:58:56.915Z,66.93
2019-05-12T08:01:27.787Z,61.20
2019-05-12T08:04:01.303Z,59.93
2019-05-12T08:06:41.399Z,61.70
2019-05-12T08:09:08.503Z,63.60
2019-05-12T08:11:40.751Z,63.07
2019-05-12T08:14:24.826Z,70.50
2019-05-12T08:16:46.458Z,59.00
2019-05-12T08:19:23.867Z,66.70
2019-05-12T08:21:53.771Z,64.57
2019-05-12T08:24:26.003Z,59.27
2019-05-12T08:27:03.001Z,61.63
2019-05-12T08:29:34.137Z,51.73
2019-05-12T08:32:09.927Z,47.90
2019-05-12T08:34:39.969Z,48.70
2019-05-12T08:37:13.952Z,56.77
2019-05-12T08:39:46.082Z,48.63
2019-05-12T08:42:18.065Z,49.97
2019-05-12T08:44:50.551Z,49.87
2019-05-12T08:47:23.868Z,47.43
2019-05-12T08:49:58.745Z,48.30
2019-05-12T08:52:30.570Z,47.47
2019-05-12T08:55:04.404Z,43.30
2019-05-12T08:57:40.621Z,57.50
2019-05-12T09:00:13.284Z,51.03
2019-05-12T09:02:50.297Z,49.90
2019-05-12T09:05:18.864Z,43.87
2019-05-12T09:07:54.127Z,47.17
2019-05-12T09:10:26.141Z,49.63
2019-05-12T09:12:58.295Z,54.17
2019-05-12T09:15:30.542Z,43.60
2019-05-12T09:18:04.854Z,40.57
2019-05-12T09:20:39.415Z,45.13
2019-05-12T09:23:10.660Z,37.40
2019-05-12T09:25:45.074Z,35.93
2019-05-12T09:28:16.603Z,38.07
2019-05-12T09:30:49.511Z,38.10
2019-05-12T09:33:26.778Z,33.47
2019-05-12T09:35:55.389Z,32.33
2019-05-12T09:38:27.436Z,33.00
2019-05-12T09:41:01.076Z,32.27
2019-05-12T09:43:34.397Z,28.70
2019-05-12T09:46:06.566Z,32.10
2019-05-12T09:48:39.113Z,30.17
2019-05-12T09:51:13.331Z,24.10
2019-05-12T09:53:50.799Z,23.53
2019-05-12T09:56:19.843Z,26.03
2019-05-12T09:59:01.584Z,23.67
2019-05-12T10:01:29.249Z,16.07
2019-05-12T10:03:59.380Z,12.13
2019-05-12T10:06:33.776Z,10.27
2019-05-12T10:09:08.924Z,10.70
2019-05-12T10:11:40.271Z,9.97
2019-05-12T10:14:13.988Z,9.67
2019-05-12T10:16:49.727Z,12.37
2019-05-12T10:19:20.222Z,14.57
2019-05-12T10:21:55.310Z,14.93
2019-05-12T10:24:26.049Z,14.80
2019-05-12T10:26:58.043Z,13.87
2019-05-12T10:29:32.447Z,15.83
2019-05-12T10:32:04.529Z,15.17
2019-05-12T10:34:40.253Z,20.70
2019-05-12T10:37:10.644Z,16.13
2019-05-12T10:39:42.674Z,17.03
2019-05-12T10:42:14.727Z,25.60
2019-05-12T10:44:46.733Z,23.20
2019-05-12T10:47:18.821Z,26.27
2019-05-12T10:49:50.927Z,26.17
2019-05-12T10:52:24.396Z,29.67
2019-05-12T10:54:56.554Z,24.20
2019-05-12T10:57:28.622Z,15.30
2019-05-12T11:00:01.047Z,14.57
2019-05-12T11:02:33.651Z,14.27
2019-05-12T11:05:12.434Z,17.83
2019-05-12T11:07:43.451Z,17.80
2019-05-12T11:10:19.834Z,14.67
2019-05-12T11:12:48.887Z,15.03
2019-05-12T11:15:21.345Z,18.37
2019-05-12T11:18:08.279Z,18.37
2019-05-12T11:20:40.636Z,16.13
2019-05-12T11:23:13.755Z,16.70
2019-05-12T11:25:45.917Z,13.73
2019-05-12T11:28:18.058Z,19.37
2019-05-12T11:30:50.461Z,20.03
2019-05-12T11:33:23.786Z,15.73
2019-05-12T11:35:56.017Z,14.20
2019-05-12T11:38:28.120Z,13.53
2019-05-12T11:41:00.131Z,18.73
2019-05-12T11:43:33.796Z,19.83
2019-05-12T11:46:06.026Z,20.43
2019-05-12T11:48:40.243Z,22.40
2019-05-12T11:51:14.273Z,21.03
2019-05-12T11:53:45.792Z,22.13
2019-05-12T11:56:17.814Z,18.67
2019-05-12T11:58:51.499Z,21.07
2019-05-12T12:01:25.217Z,22.53
2019-05-12T12:03:57.413Z,27.27
2019-05-12T12:06:29.719Z,27.13
2019-05-12T12:09:03.831Z,22.73
2019-05-12T12:11:35.921Z,27.87
2019-05-12T12:14:10.550Z,23.80
2019-05-12T12:16:49.787Z,25.47
2019-05-12T12:19:15.624Z,24.60
2019-05-12T12:21:50.094Z,20.87
2019-05-12T12:24:29.742Z,24.37
2019-05-12T12:26:55.315Z,22.43
2019-05-12T12:29:28.287Z,22.87
2019-05-12T12:32:00.580Z,22.33
2019-05-12T12:34:33.182Z,28.77
2019-05-12T12:37:05.461Z,22.30
2019-05-12T12:39:37.453Z,23.13
2019-05-12T12:42:09.607Z,16.10
2019-05-12T12:44:41.599Z,30.93
2019-05-12T12:47:14.012Z,28.47
2019-05-12T12:49:49.250Z,24.70
2019-05-12T12:52:20.006Z,34.37
2019-05-12T12:54:54.190Z,27.40
2019-05-12T12:57:25.847Z,32.90
2019-05-12T12:59:59.654Z,37.27
2019-05-12T13:02:33.744Z,33.27
2019-05-12T13:05:05.687Z,37.97
2019-05-12T13:07:37.722Z,28.27
2019-05-12T13:10:10.959Z,31.13
2019-05-12T13:12:43.682Z,24.43
2019-05-12T13:15:16.367Z,25.23
2019-05-12T13:17:48.456Z,24.27
2019-05-12T13:20:20.703Z,21.40
2019-05-12T13:22:53.611Z,37.60
2019-05-12T13:25:25.824Z,27.97
2019-05-12T13:28:01.446Z,19.90
2019-05-12T13:30:45.918Z,18.23
2019-05-12T13:33:08.917Z,25.43
2019-05-12T13:35:40.659Z,38.57
2019-05-12T13:38:14.481Z,19.77
2019-05-12T13:40:46.703Z,17.00
2019-05-12T13:43:19.729Z,22.73
2019-05-12T13:45:53.468Z,25.27
2019-05-12T13:48:25.677Z,34.00
2019-05-12T13:51:07.397Z,26.97
2019-05-12T13:53:33.378Z,25.43
2019-05-12T13:56:05.043Z,23.43
2019-05-12T13:58:42.829Z,24.90
2019-05-12T14:01:19.941Z,26.10
2019-05-12T14:03:50.520Z,23.37
2019-05-12T14:06:23.041Z,20.33
2019-05-12T14:08:53.808Z,23.00
2019-05-12T14:11:26.137Z,20.23
2019-05-12T14:14:00.847Z,15.83
2019-05-12T14:16:33.897Z,17.27
2019-05-12T14:19:06.402Z,18.30
2019-05-12T14:21:41.207Z,19.93
2019-05-12T14:24:13.929Z,22.07
2019-05-12T14:26:49.392Z,26.97
2019-05-12T14:29:25.379Z,16.70
2019-05-12T14:31:59.617Z,18.33
2019-05-12T14:34:28.002Z,12.47
2019-05-12T14:37:08.453Z,13.53
2019-05-12T14:39:34.430Z,38.53
2019-05-12T14:42:06.739Z,16.73
2019-05-12T14:44:44.993Z,21.27
2019-05-12T14:47:12.459Z,14.33
2019-05-12T14:49:44.472Z,15.67
2019-05-12T14:52:16.539Z,21.50
2019-05-12T14:54:48.669Z,22.43
2019-05-12T14:57:20.943Z,28.70
2019-05-12T14:59:52.960Z,17.23
2019-05-12T15:02:28.206Z,15.50
2019-05-12T15:05:00.271Z,18.27
2019-05-12T15:07:32.568Z,21.13
2019-05-12T15:10:08.695Z,18.90
2019-05-12T15:12:38.439Z,18.77
2019-05-12T15:15:18.386Z,18.67
2019-05-12T15:17:44.810Z,20.07
2019-05-12T15:20:17.040Z,19.53
2019-05-12T15:22:51.655Z,23.97
2019-05-12T15:25:22.678Z,21.30
2019-05-12T15:27:54.780Z,23.53
2019-05-12T15:30:26.986Z,25.10
2019-05-12T15:32:59.130Z,27.40
2019-05-12T15:35:31.158Z,29.47
2019-05-12T15:38:03.883Z,31.03
2019-05-12T15:40:36.079Z,28.83
2019-05-12T15:43:09.327Z,28.07
2019-05-12T15:45:43.603Z,24.63
2019-05-12T15:48:18.417Z,27.50
2019-05-12T15:50:49.244Z,27.73
2019-05-12T15:53:22.379Z,26.33
2019-05-12T15:55:55.112Z,27.87
2019-05-12T15:58:27.175Z,32.07
2019-05-12T16:00:59.166Z,31.93
2019-05-12T16:03:31.335Z,26.70
2019-05-12T16:06:10.042Z,30.30
2019-05-12T16:08:37.331Z,25.13
2019-05-12T16:11:09.330Z,26.43
2019-05-12T16:13:44.849Z,28.83
2019-05-12T16:16:15.319Z,32.63
2019-05-12T16:18:50.630Z,42.27
2019-05-12T16:21:21.765Z,47.93
2019-05-12T16:23:56.724Z,37.33
2019-05-12T16:26:27.647Z,38.43
2019-05-12T16:29:03.173Z,33.07
2019-05-12T16:31:33.999Z,39.23
2019-05-12T16:34:06.300Z,47.27
2019-05-12T16:36:41.183Z,40.70
2019-05-12T16:39:13.490Z,29.83
2019-05-12T16:41:45.651Z,27.83
2019-05-12T16:44:23.091Z,41.90
2019-05-12T16:46:53.437Z,34.20
2019-05-12T16:49:33.354Z,37.70
2019-05-12T16:51:59.183Z,34.27
2019-05-12T16:54:33.437Z,29.87
2019-05-12T16:57:06.338Z,31.83
2019-05-12T16:59:38.853Z,32.10
2019-05-12T17:02:11.360Z,38.73
2019-05-12T17:04:43.472Z,44.67
2019-05-12T17:07:19.365Z,44.93
2019-05-12T17:09:49.455Z,31.57
2019-05-12T17:12:23.862Z,30.23
2019-05-12T17:14:55.201Z,30.10
2019-05-12T17:17:27.336Z,26.33
2019-05-12T17:19:59.331Z,27.33
2019-05-12T17:22:31.311Z,25.33
2019-05-12T17:25:04.958Z,26.27
2019-05-12T17:27:37.096Z,23.77
2019-05-12T17:30:09.680Z,25.87
2019-05-12T17:32:54.905Z,24.03
2019-05-12T17:35:20.169Z,23.50
2019-05-12T17:37:50.594Z,24.27
2019-05-12T17:40:24.283Z,25.53
2019-05-12T17:43:05.210Z,27.70
2019-05-12T17:45:30.408Z,36.90
2019-05-12T17:48:07.418Z,26.10
2019-05-12T17:50:40.349Z,22.73
2019-05-12T17:53:13.576Z,17.90
2019-05-12T17:55:51.285Z,25.77
2019-05-12T17:58:18.323Z,30.40
2019-05-12T18:00:51.909Z,31.63
2019-05-12T18:03:25.759Z,23.80
2019-05-12T18:05:57.984Z,23.73
2019-05-12T18:08:35.824Z,26.30
2019-05-12T18:11:03.933Z,25.27
2019-05-12T18:13:39.807Z,28.30
2019-05-12T18:16:11.418Z,33.70
2019-05-12T18:18:44.373Z,29.90
2019-05-12T18:21:21.485Z,38.70
2019-05-12T18:23:53.660Z,59.47
2019-05-12T18:26:25.980Z,37.00
2019-05-12T18:28:58.137Z,44.03
2019-05-12T18:31:30.516Z,38.10
2019-05-12T18:34:04.745Z,25.67
2019-05-12T18:36:36.304Z,29.07
2019-05-12T18:39:11.841Z,28.70
2019-05-12T18:41:43.926Z,26.87
2019-05-12T18:44:25.293Z,20.57
2019-05-12T18:46:49.981Z,21.10
2019-05-12T18:49:23.843Z,21.73
2019-05-12T18:51:57.226Z,28.17
2019-05-12T18:54:29.496Z,42.23
2019-05-12T18:57:03.113Z,27.07
2019-05-12T18:59:35.209Z,33.80
2019-05-12T19:02:07.606Z,26.60
2019-05-12T19:04:41.226Z,20.10
2019-05-12T19:07:15.322Z,15.43
2019-05-12T19:09:47.583Z,16.63
2019-05-12T19:12:21.608Z,17.47
2019-05-12T19:14:54.719Z,15.07
2019-05-12T19:17:26.839Z,15.80
2019-05-12T19:19:59.781Z,12.73
2019-05-12T19:22:33.649Z,15.17
2019-05-12T19:25:06.037Z,14.57
2019-05-12T19:27:38.066Z,12.77
2019-05-12T19:30:10.206Z,19.03
2019-05-12T19:32:44.471Z,14.17
2019-05-12T19:35:20.354Z,12.73
2019-05-12T19:37:50.793Z,13.00
2019-05-12T19:40:22.920Z,16.73
2019-05-12T19:43:02.119Z,15.20
2019-05-12T19:45:28.878Z,20.17
2019-05-12T19:48:01.252Z,14.17
2019-05-12T19:50:33.377Z,15.17
2019-05-12T19:53:05.609Z,19.33
2019-05-12T19:55:37.651Z,15.80
2019-05-12T19:58:11.375Z,18.50
2019-05-12T20:00:44.445Z,17.27
2019-05-12T20:03:16.659Z,17.20
2019-05-12T20:05:48.853Z,21.57
2019-05-12T20:08:21.025Z,19.07
2019-05-12T20:10:54.148Z,19.23
2019-05-12T20:13:29.546Z,21.57
2019-05-12T20:16:01.338Z,24.20
2019-05-12T20:18:36.092Z,20.17
2019-05-12T20:21:07.164Z,15.80
2019-05-12T20:23:39.365Z,19.57
2019-05-12T20:26:11.459Z,25.17
2019-05-12T20:28:50.087Z,24.40
2019-05-12T20:31:17.300Z,19.63
2019-05-12T20:33:49.337Z,22.97
2019-05-12T20:36:25.912Z,17.03
2019-05-12T20:38:55.612Z,15.53
2019-05-12T20:41:27.699Z,18.30
2019-05-12T20:43:59.758Z,17.30
2019-05-12T20:46:33.969Z,19.03
2019-05-12T20:49:09.703Z,21.20
2019-05-12T20:51:40.171Z,21.40
2019-05-12T20:54:17.938Z,20.10
2019-05-12T20:56:47.048Z,19.57
2019-05-12T20:59:21.953Z,16.37
2019-05-12T21:01:53.195Z,17.67
2019-05-12T21:04:31.434Z,17.13
2019-05-12T21:06:59.103Z,12.40
2019-05-12T21:09:31.202Z,17.20
2019-05-12T21:12:03.175Z,12.67
2019-05-12T21:14:35.167Z,13.00
2019-05-12T21:17:08.861Z,10.70
2019-05-12T21:19:55.454Z,12.93
2019-05-12T21:22:15.041Z,9.50
2019-05-12T21:24:47.061Z,7.23
2019-05-12T21:27:19.940Z,7.93
2019-05-12T21:29:54.083Z,8.63
2019-05-12T21:32:25.717Z,8.10
2019-05-12T21:34:59.466Z,13.27
2019-05-12T21:37:38.674Z,9.37
2019-05-12T21:40:06.346Z,10.93
2019-05-12T21:42:38.526Z,10.67
2019-05-12T21:45:10.609Z,11.13
2019-05-12T21:47:44.343Z,8.53
2019-05-12T21:50:16.941Z,9.30
2019-05-12T21:52:49.039Z,12.87
2019-05-12T21:55:23.215Z,12.60
2019-05-12T21:57:55.003Z,10.00
2019-05-12T22:00:36.830Z,13.87
2019-05-12T22:03:12.994Z,13.70
2019-05-12T22:05:51.302Z,10.07
2019-05-12T22:08:22.033Z,10.60
2019-05-12T22:10:54.219Z,12.23
2019-05-12T22:13:28.154Z,13.03
2019-05-12T22:16:00.668Z,12.47
2019-05-12T22:18:33.345Z,11.27
2019-05-12T22:21:07.203Z,13.20
2019-05-12T22:23:44.533Z,12.07
2019-05-12T22:26:13.030Z,10.50
2019-05-12T22:28:50.836Z,11.70
2019-05-12T22:31:20.961Z,9.73
2019-05-12T22:33:56.393Z,11.77
2019-05-12T22:36:30.129Z,11.33
2019-05-12T22:39:03.089Z,11.57
2019-05-12T22:41:41.111Z,11.37
2019-05-12T22:44:09.274Z,10.13
2019-05-12T22:46:43.576Z,11.70
2019-05-12T22:49:20.730Z,11.37
2019-05-12T22:51:54.561Z,11.53
2019-05-12T22:54:24.287Z,12.57
2019-05-12T22:56:56.980Z,11.07
2019-05-12T22:59:32.076Z,10.93
2019-05-12T23:02:04.446Z,11.07
2019-05-12T23:04:40.404Z,8.33
2019-05-12T23:07:13.652Z,10.97
2019-05-12T23:09:46.041Z,8.53
2019-05-12T23:12:20.079Z,9.93
2019-05-12T23:14:56.505Z,9.03
2019-05-12T23:17:25.988Z,10.57
2019-05-12T23:19:57.962Z,10.93
2019-05-12T23:22:35.009Z,8.47
2019-05-12T23:25:04.334Z,9.37
2019-05-12T23:27:36.296Z,9.97
2019-05-12T23:30:12.595Z,8.40
2019-05-12T23:32:51.275Z,10.30
2019-05-12T23:35:17.619Z,8.03
2019-05-12T23:37:50.370Z,8.40
2019-05-12T23:40:23.591Z,10.50
2019-05-12T23:42:55.746Z,10.80
2019-05-12T23:45:27.723Z,8.60
2019-05-12T23:47:59.759Z,10.07
2019-05-12T23:50:31.779Z,8.33
2019-05-12T23:53:04.035Z,6.57
2019-05-12T23:55:36.081Z,8.97
2019-05-12T23:58:08.092Z,5.80
